createdAt,value
2019-02-07T00:00:20.417Z,6.82
2019-02-07T00:02:49.272Z,6.37
2019-02-07T00:05:16.511Z,6.40
2019-02-07T00:07:43.400Z,6.39
2019-02-07T00:10:10.710Z,6.44
2019-02-07T00:12:37.596Z,6.49
2019-02-07T00:15:04.529Z,7.01
2019-02-07T00:17:31.851Z,6.88
2019-02-07T00:19:59.108Z,6.69
2019-02-07T00:22:27.059Z,6.46
2019-02-07T00:24:54.337Z,6.55
2019-02-07T00:27:21.573Z,6.57
2019-02-07T00:29:48.446Z,6.20
2019-02-07T00:32:15.773Z,6.41
2019-02-07T00:34:43.128Z,6.09
2019-02-07T00:37:10.061Z,6.07
2019-02-07T00:39:36.932Z,6.06
2019-02-07T00:42:03.894Z,6.54
2019-02-07T00:44:30.773Z,6.62
2019-02-07T00:46:57.705Z,6.29
2019-02-07T00:49:24.921Z,6.13
2019-02-07T00:51:51.811Z,5.80
2019-02-07T00:54:19.126Z,5.66
2019-02-07T00:56:46.434Z,5.69
2019-02-07T00:59:13.373Z,5.40
2019-02-07T01:01:40.313Z,5.75
2019-02-07T01:04:07.201Z,6.10
2019-02-07T01:06:34.152Z,6.39
2019-02-07T01:09:01.410Z,6.50
2019-02-07T01:11:29.957Z,6.02
2019-02-07T01:13:57.170Z,6.24
2019-02-07T01:16:24.106Z,6.70
2019-02-07T01:18:51.344Z,6.85
2019-02-07T01:21:18.583Z,6.88
2019-02-07T01:23:45.464Z,6.73
2019-02-07T01:26:12.482Z,6.79
2019-02-07T01:28:40.030Z,6.82
2019-02-07T01:31:06.909Z,6.69
2019-02-07T01:33:34.137Z,6.96
2019-02-07T01:36:01.085Z,7.51
2019-02-07T01:38:28.066Z,7.30
2019-02-07T01:40:55.002Z,7.29
2019-02-07T01:43:22.020Z,7.33
2019-02-07T01:45:49.266Z,7.35
2019-02-07T01:48:16.164Z,7.11
2019-02-07T01:50:43.477Z,6.67
2019-02-07T01:53:10.438Z,5.99
2019-02-07T01:55:37.370Z,5.63
2019-02-07T01:58:04.323Z,5.60
2019-02-07T02:00:31.556Z,5.55
2019-02-07T02:02:58.433Z,5.83
2019-02-07T02:05:26.199Z,5.26
2019-02-07T02:07:54.221Z,5.55
2019-02-07T02:10:21.171Z,6.17
2019-02-07T02:12:48.430Z,6.07
2019-02-07T02:15:24.058Z,5.70
2019-02-07T02:17:44.169Z,5.61
2019-02-07T02:20:11.325Z,5.66
2019-02-07T02:22:38.682Z,5.48
2019-02-07T02:25:05.624Z,5.50
2019-02-07T02:27:32.566Z,5.50
2019-02-07T02:29:59.517Z,5.22
2019-02-07T02:32:26.399Z,5.38
2019-02-07T02:34:53.622Z,5.44
2019-02-07T02:37:20.557Z,5.50
2019-02-07T02:39:47.706Z,6.29
2019-02-07T02:42:14.961Z,6.05
2019-02-07T02:44:41.937Z,6.09
2019-02-07T02:47:08.880Z,5.92
2019-02-07T02:49:35.823Z,5.60
2019-02-07T02:52:03.152Z,5.52
2019-02-07T02:54:30.311Z,5.33
2019-02-07T02:56:57.275Z,5.35
2019-02-07T02:59:24.593Z,5.25
2019-02-07T03:01:51.484Z,5.33
2019-02-07T03:04:18.424Z,5.52
2019-02-07T03:06:45.359Z,6.07
2019-02-07T03:09:13.369Z,5.95
2019-02-07T03:11:40.253Z,6.32
2019-02-07T03:14:07.186Z,6.18
2019-02-07T03:16:34.117Z,6.00
2019-02-07T03:19:01.073Z,5.89
2019-02-07T03:21:27.988Z,5.95
2019-02-07T03:23:55.187Z,5.89
2019-02-07T03:26:22.482Z,6.06
2019-02-07T03:28:49.429Z,5.94
2019-02-07T03:31:16.378Z,5.75
2019-02-07T03:33:43.361Z,5.68
2019-02-07T03:36:10.943Z,5.69
2019-02-07T03:38:37.886Z,5.10
2019-02-07T03:41:04.839Z,5.31
2019-02-07T03:43:31.702Z,5.09
2019-02-07T03:46:03.020Z,5.23
2019-02-07T03:48:27.485Z,5.39
2019-02-07T03:50:55.119Z,5.49
2019-02-07T03:53:22.707Z,5.77
2019-02-07T03:55:49.650Z,5.64
2019-02-07T03:58:16.606Z,5.44
2019-02-07T04:00:43.897Z,5.42
2019-02-07T04:03:10.839Z,5.30
2019-02-07T04:05:37.817Z,5.36
2019-02-07T04:08:05.128Z,4.94
2019-02-07T04:10:32.265Z,5.02
2019-02-07T04:12:59.451Z,4.96
2019-02-07T04:15:26.712Z,5.50
2019-02-07T04:17:53.944Z,5.61
2019-02-07T04:20:21.287Z,5.74
2019-02-07T04:22:48.245Z,5.50
2019-02-07T04:25:15.271Z,5.48
2019-02-07T04:27:42.205Z,5.89
2019-02-07T04:30:09.245Z,5.38
2019-02-07T04:32:36.276Z,5.54
2019-02-07T04:35:04.530Z,5.64
2019-02-07T04:37:31.751Z,5.74
2019-02-07T04:39:59.014Z,6.05
2019-02-07T04:42:25.945Z,5.62
2019-02-07T04:44:53.381Z,5.44
2019-02-07T04:47:20.566Z,5.24
2019-02-07T04:49:47.524Z,4.94
2019-02-07T04:52:14.868Z,5.20
2019-02-07T04:54:41.844Z,4.94
2019-02-07T04:57:08.892Z,4.88
2019-02-07T04:59:35.873Z,5.38
2019-02-07T05:02:03.172Z,5.15
2019-02-07T05:04:30.843Z,5.68
2019-02-07T05:06:57.827Z,5.92
2019-02-07T05:09:24.798Z,5.91
2019-02-07T05:11:51.678Z,5.70
2019-02-07T05:14:18.611Z,5.67
2019-02-07T05:16:45.547Z,5.38
2019-02-07T05:19:12.490Z,5.24
2019-02-07T05:21:39.781Z,5.12
2019-02-07T05:24:07.427Z,5.40
2019-02-07T05:26:34.658Z,5.18
2019-02-07T05:29:01.526Z,5.36
2019-02-07T05:31:28.397Z,5.26
2019-02-07T05:33:55.341Z,5.26
2019-02-07T05:36:22.286Z,4.93
2019-02-07T05:38:49.493Z,4.94
2019-02-07T05:41:16.873Z,4.98
2019-02-07T05:43:43.898Z,4.57
2019-02-07T05:46:10.777Z,4.76
2019-02-07T05:48:37.655Z,4.50
2019-02-07T05:51:04.603Z,4.42
2019-02-07T05:53:31.575Z,4.67
2019-02-07T05:55:58.538Z,4.48
2019-02-07T05:58:25.891Z,4.14
2019-02-07T06:00:53.059Z,4.22
2019-02-07T06:03:20.063Z,4.41
2019-02-07T06:05:47.350Z,4.37
2019-02-07T06:08:14.328Z,4.46
2019-02-07T06:10:41.268Z,4.51
2019-02-07T06:13:08.742Z,4.43
2019-02-07T06:15:35.670Z,4.57
2019-02-07T06:18:03.237Z,4.65
2019-02-07T06:20:30.571Z,4.46
2019-02-07T06:22:57.527Z,4.68
2019-02-07T06:25:24.731Z,4.87
2019-02-07T06:27:52.025Z,5.33
2019-02-07T06:30:18.963Z,6.03
2019-02-07T06:32:46.186Z,6.40
2019-02-07T06:35:13.125Z,6.70
2019-02-07T06:37:40.003Z,6.67
2019-02-07T06:40:06.891Z,6.23
2019-02-07T06:42:33.850Z,6.09
2019-02-07T06:45:01.121Z,6.22
2019-02-07T06:47:27.997Z,5.88
2019-02-07T06:49:55.230Z,5.55
2019-02-07T06:52:22.467Z,6.44
2019-02-07T06:54:50.138Z,6.09
2019-02-07T06:57:17.171Z,5.53
2019-02-07T06:59:44.168Z,6.06
2019-02-07T07:02:11.053Z,6.23
2019-02-07T07:04:38.323Z,6.27
2019-02-07T07:07:05.306Z,5.76
2019-02-07T07:09:33.783Z,5.76
2019-02-07T07:12:00.746Z,5.70
2019-02-07T07:14:27.677Z,5.59
2019-02-07T07:16:54.677Z,5.84
2019-02-07T07:19:21.557Z,5.68
2019-02-07T07:21:48.702Z,5.80
2019-02-07T07:24:15.935Z,5.44
2019-02-07T07:26:42.913Z,5.58
2019-02-07T07:29:10.153Z,5.92
2019-02-07T07:31:38.317Z,5.87
2019-02-07T07:34:05.565Z,6.13
2019-02-07T07:36:32.558Z,6.31
2019-02-07T07:38:59.500Z,6.82
2019-02-07T07:41:26.851Z,6.91
2019-02-07T07:43:53.792Z,6.93
2019-02-07T07:46:21.053Z,6.30
2019-02-07T07:48:48.031Z,6.02
2019-02-07T07:51:15.301Z,6.31
2019-02-07T07:53:42.228Z,6.55
2019-02-07T07:56:09.500Z,6.79
2019-02-07T07:58:36.773Z,7.13
2019-02-07T08:01:04.005Z,6.80
2019-02-07T08:03:31.746Z,6.22
2019-02-07T08:05:58.664Z,7.00
2019-02-07T08:08:25.968Z,6.59
2019-02-07T08:10:52.855Z,6.92
2019-02-07T08:13:19.778Z,6.47
2019-02-07T08:15:46.710Z,7.19
2019-02-07T08:18:13.662Z,7.10
2019-02-07T08:20:42.426Z,6.83
2019-02-07T08:23:10.259Z,6.90
2019-02-07T08:25:37.464Z,6.34
2019-02-07T08:28:04.415Z,6.92
2019-02-07T08:30:36.504Z,6.42
2019-02-07T08:33:00.253Z,5.29
2019-02-07T08:35:27.494Z,4.96
2019-02-07T08:37:58.038Z,4.72
2019-02-07T08:40:22.998Z,5.27
2019-02-07T08:42:49.934Z,5.21
2019-02-07T08:45:16.881Z,5.90
2019-02-07T08:47:44.174Z,5.60
2019-02-07T08:50:11.428Z,5.83
2019-02-07T08:52:38.361Z,5.58
2019-02-07T08:55:05.299Z,5.98
2019-02-07T08:57:32.276Z,6.52
2019-02-07T08:59:59.249Z,6.23
2019-02-07T09:02:26.230Z,5.67
2019-02-07T09:04:53.124Z,5.90
2019-02-07T09:07:20.358Z,5.09
2019-02-07T09:09:50.678Z,5.17
2019-02-07T09:12:17.882Z,5.24
2019-02-07T09:14:45.223Z,5.08
2019-02-07T09:17:14.470Z,5.24
2019-02-07T09:19:41.062Z,5.06
2019-02-07T09:22:08.388Z,5.73
2019-02-07T09:27:10.473Z,5.62
2019-02-07T09:29:37.518Z,5.64
2019-02-07T09:32:04.760Z,4.96
2019-02-07T09:34:32.010Z,4.39
2019-02-07T09:36:59.161Z,4.65
2019-02-07T09:39:26.163Z,4.68
2019-02-07T09:41:53.034Z,4.65
2019-02-07T09:44:19.980Z,4.43
2019-02-07T09:46:47.576Z,4.37
2019-02-07T09:49:14.810Z,4.21
2019-02-07T09:51:41.784Z,5.06
2019-02-07T09:54:08.649Z,4.79
2019-02-07T09:56:35.636Z,5.76
2019-02-07T09:59:03.526Z,4.49
2019-02-07T10:01:30.871Z,4.11
2019-02-07T10:03:58.113Z,4.41
2019-02-07T10:06:24.981Z,4.61
2019-02-07T10:08:51.896Z,4.53
2019-02-07T10:11:19.166Z,4.55
2019-02-07T10:13:46.117Z,4.54
2019-02-07T10:16:13.368Z,4.82
2019-02-07T10:18:40.634Z,4.78
2019-02-07T10:21:07.586Z,4.76
2019-02-07T10:23:34.934Z,4.61
2019-02-07T10:26:02.306Z,4.88
2019-02-07T10:28:30.351Z,4.90
2019-02-07T10:30:57.296Z,5.61
2019-02-07T10:33:24.245Z,4.72
2019-02-07T10:35:51.215Z,4.14
2019-02-07T10:38:18.555Z,4.38
2019-02-07T10:40:45.883Z,4.13
2019-02-07T10:43:12.906Z,4.56
2019-02-07T10:45:40.097Z,4.89
2019-02-07T10:48:07.353Z,4.66
2019-02-07T10:50:34.239Z,5.27
2019-02-07T10:53:01.218Z,4.57
2019-02-07T10:55:28.594Z,4.76
2019-02-07T10:57:55.468Z,5.51
2019-02-07T11:00:22.409Z,5.35
2019-02-07T11:02:49.366Z,4.91
2019-02-07T11:05:16.538Z,5.31
2019-02-07T11:07:43.848Z,5.61
2019-02-07T11:10:11.113Z,5.20
2019-02-07T11:12:38.540Z,4.92
2019-02-07T11:15:05.497Z,4.78
2019-02-07T11:17:32.756Z,4.71
2019-02-07T11:19:59.769Z,5.10
2019-02-07T11:22:26.749Z,5.20
2019-02-07T11:24:54.201Z,5.87
2019-02-07T11:27:21.194Z,6.07
2019-02-07T11:29:48.061Z,5.94
2019-02-07T11:32:14.966Z,5.56
2019-02-07T11:34:46.098Z,5.33
2019-02-07T11:37:13.442Z,5.57
2019-02-07T11:39:40.376Z,5.77
2019-02-07T11:42:07.333Z,5.93
2019-02-07T11:44:34.676Z,6.13
2019-02-07T11:47:05.620Z,5.07
2019-02-07T11:49:30.761Z,5.25
2019-02-07T11:51:57.848Z,5.04
2019-02-07T11:54:24.791Z,5.91
2019-02-07T11:56:51.758Z,5.14
2019-02-07T11:59:18.810Z,5.33
2019-02-07T12:01:45.804Z,5.54
2019-02-07T12:04:12.792Z,5.04
2019-02-07T12:06:39.759Z,5.37
2019-02-07T12:09:06.714Z,5.13
2019-02-07T12:11:34.288Z,5.40
2019-02-07T12:14:01.353Z,5.48
2019-02-07T12:16:28.319Z,6.13
2019-02-07T12:18:55.233Z,5.85
2019-02-07T12:21:22.145Z,5.71
2019-02-07T12:23:49.139Z,5.68
2019-02-07T12:26:16.362Z,5.91
2019-02-07T12:28:43.360Z,5.53
2019-02-07T12:31:10.278Z,5.98
2019-02-07T12:33:37.688Z,5.99
2019-02-07T12:36:04.666Z,5.99
2019-02-07T12:38:32.028Z,5.41
2019-02-07T12:41:00.303Z,5.25
2019-02-07T12:43:30.139Z,5.17
2019-02-07T12:45:57.108Z,5.77
2019-02-07T12:48:24.372Z,5.91
2019-02-07T12:50:51.827Z,5.37
2019-02-07T12:53:18.964Z,5.41
2019-02-07T12:55:52.191Z,5.73
2019-02-07T12:58:14.429Z,5.44
2019-02-07T13:00:41.975Z,5.24
2019-02-07T13:03:08.917Z,5.29
2019-02-07T13:05:35.900Z,5.29
2019-02-07T13:08:03.232Z,5.71
2019-02-07T13:10:30.178Z,6.22
2019-02-07T13:12:57.140Z,6.09
2019-02-07T13:15:24.466Z,5.72
2019-02-07T13:17:52.278Z,6.10
2019-02-07T13:20:19.852Z,6.12
2019-02-07T13:22:46.867Z,5.89
2019-02-07T13:25:13.738Z,5.89
2019-02-07T13:27:40.637Z,5.84
2019-02-07T13:30:07.898Z,6.01
2019-02-07T13:32:34.911Z,5.99
2019-02-07T13:35:02.156Z,6.13
2019-02-07T13:37:34.667Z,6.24
2019-02-07T13:40:01.699Z,5.94
2019-02-07T13:42:29.003Z,5.95
2019-02-07T13:44:55.961Z,6.17
2019-02-07T13:47:23.105Z,6.49
2019-02-07T13:49:52.015Z,5.69
2019-02-07T13:52:19.397Z,5.62
2019-02-07T13:54:46.304Z,5.22
2019-02-07T13:57:13.617Z,4.91
2019-02-07T13:59:40.910Z,4.82
2019-02-07T14:02:08.234Z,4.89
2019-02-07T14:04:35.481Z,4.83
2019-02-07T14:07:02.712Z,5.42
2019-02-07T14:09:30.043Z,4.53
2019-02-07T14:11:57.067Z,4.87
2019-02-07T14:14:24.275Z,5.33
2019-02-07T14:16:51.361Z,5.49
2019-02-07T14:19:18.678Z,6.01
2019-02-07T14:21:45.643Z,5.92
2019-02-07T14:24:13.089Z,6.06
2019-02-07T14:26:40.315Z,6.09
2019-02-07T14:29:07.235Z,5.78
2019-02-07T14:31:34.189Z,6.11
2019-02-07T14:34:01.620Z,5.56
2019-02-07T14:36:29.040Z,5.55
2019-02-07T14:38:56.000Z,5.37
2019-02-07T14:41:23.489Z,5.09
2019-02-07T14:43:50.744Z,5.82
2019-02-07T14:46:17.975Z,5.35
2019-02-07T14:48:45.281Z,5.70
2019-02-07T14:51:12.290Z,5.78
2019-02-07T14:53:39.221Z,5.62
2019-02-07T14:56:06.433Z,5.59
2019-02-07T14:58:33.366Z,5.34
2019-02-07T15:01:00.643Z,5.39
2019-02-07T15:03:27.795Z,5.41
2019-02-07T15:05:55.049Z,5.62
2019-02-07T15:08:22.390Z,5.84
2019-02-07T15:10:49.338Z,5.66
2019-02-07T15:13:16.307Z,6.50
2019-02-07T15:15:43.266Z,5.89
2019-02-07T15:18:10.488Z,6.10
2019-02-07T15:20:38.481Z,5.92
2019-02-07T15:23:05.714Z,6.41
2019-02-07T15:25:32.590Z,6.13
2019-02-07T15:27:59.917Z,5.54
2019-02-07T15:30:27.276Z,5.13
2019-02-07T15:32:54.516Z,5.73
2019-02-07T15:35:21.771Z,5.94
2019-02-07T15:37:48.759Z,5.97
2019-02-07T15:40:16.279Z,5.66
2019-02-07T15:42:43.234Z,5.96
2019-02-07T15:45:10.252Z,7.11
2019-02-07T15:47:37.218Z,6.83
2019-02-07T15:50:04.579Z,6.59
2019-02-07T15:52:31.961Z,6.79
2019-02-07T15:54:58.888Z,6.41
2019-02-07T15:57:26.323Z,6.26
2019-02-07T15:59:53.646Z,6.82
2019-02-07T16:02:20.627Z,6.82
2019-02-07T16:04:47.649Z,6.02
2019-02-07T16:07:14.656Z,5.66
2019-02-07T16:09:41.644Z,5.33
2019-02-07T16:12:08.635Z,5.00
2019-02-07T16:14:35.857Z,5.56
2019-02-07T16:17:03.264Z,5.63
2019-02-07T16:19:30.177Z,5.24
2019-02-07T16:21:57.118Z,5.31
2019-02-07T16:24:24.395Z,5.33
2019-02-07T16:26:51.335Z,5.84
2019-02-07T16:29:18.558Z,5.46
2019-02-07T16:31:45.834Z,5.82
2019-02-07T16:34:14.572Z,5.83
2019-02-07T16:36:41.774Z,5.67
2019-02-07T16:39:09.832Z,6.05
2019-02-07T16:41:36.867Z,6.33
2019-02-07T16:44:04.154Z,5.87
2019-02-07T16:46:31.108Z,5.85
2019-02-07T16:48:58.437Z,6.03
2019-02-07T16:51:26.194Z,5.45
2019-02-07T16:53:53.631Z,5.96
2019-02-07T16:56:20.810Z,6.08
2019-02-07T16:58:47.788Z,6.08
2019-02-07T17:01:15.128Z,5.46
2019-02-07T17:03:42.133Z,5.66
2019-02-07T17:06:09.098Z,6.48
2019-02-07T17:08:36.053Z,5.85
2019-02-07T17:11:04.342Z,6.00
2019-02-07T17:13:31.715Z,5.53
2019-02-07T17:15:58.675Z,5.72
2019-02-07T17:18:26.003Z,5.95
2019-02-07T17:20:52.939Z,6.07
2019-02-07T17:23:20.186Z,6.66
2019-02-07T17:25:47.517Z,7.11
2019-02-07T17:28:15.014Z,6.01
2019-02-07T17:30:42.344Z,6.95
2019-02-07T17:33:09.334Z,7.05
2019-02-07T17:35:36.240Z,6.32
2019-02-07T17:38:03.219Z,5.98
2019-02-07T17:40:30.184Z,6.46
2019-02-07T17:42:57.219Z,6.25
2019-02-07T17:45:24.430Z,6.61
2019-02-07T17:47:51.358Z,6.80
2019-02-07T17:50:18.663Z,5.92
2019-02-07T17:52:46.714Z,5.52
2019-02-07T17:55:13.981Z,5.76
2019-02-07T17:57:41.456Z,5.47
2019-02-07T18:00:08.426Z,5.75
2019-02-07T18:02:35.804Z,5.68
2019-02-07T18:05:03.289Z,5.63
2019-02-07T18:07:30.263Z,6.24
2019-02-07T18:09:57.687Z,6.35
2019-02-07T18:12:24.926Z,6.54
2019-02-07T18:14:53.498Z,6.59
2019-02-07T18:17:20.491Z,7.12
2019-02-07T18:19:47.730Z,7.46
2019-02-07T18:22:15.104Z,7.03
2019-02-07T18:24:42.766Z,7.01
2019-02-07T18:27:10.100Z,6.94
2019-02-07T18:29:37.066Z,6.75
2019-02-07T18:32:04.045Z,6.63
2019-02-07T18:34:34.182Z,6.60
2019-02-07T18:37:04.100Z,6.54
2019-02-07T18:39:31.435Z,7.02
2019-02-07T18:41:58.787Z,7.70
2019-02-07T18:44:25.738Z,8.09
2019-02-07T18:46:53.075Z,7.35
2019-02-07T18:49:22.036Z,7.37
2019-02-07T18:51:49.223Z,7.32
2019-02-07T18:54:17.177Z,6.98
2019-02-07T18:56:44.435Z,7.23
2019-02-07T18:59:11.905Z,8.11
2019-02-07T19:01:39.251Z,7.91
2019-02-07T19:04:06.235Z,6.84
2019-02-07T19:06:33.493Z,7.51
2019-02-07T19:09:00.447Z,7.20
2019-02-07T19:11:29.093Z,6.39
2019-02-07T19:13:57.399Z,6.39
2019-02-07T19:16:27.323Z,6.31
2019-02-07T19:18:54.000Z,6.91
2019-02-07T19:21:21.074Z,7.12
2019-02-07T19:23:48.628Z,7.04
2019-02-07T19:26:15.673Z,6.22
2019-02-07T19:28:46.434Z,6.38
2019-02-07T19:31:13.469Z,6.21
2019-02-07T19:33:41.016Z,6.93
2019-02-07T19:36:08.344Z,7.29
2019-02-07T19:38:37.390Z,7.93
2019-02-07T19:41:05.972Z,8.31
2019-02-07T19:43:33.013Z,8.02
2019-02-07T19:46:01.834Z,7.94
2019-02-07T19:48:28.867Z,7.86
2019-02-07T19:50:56.481Z,7.58
2019-02-07T19:53:23.462Z,7.63
2019-02-07T19:55:50.781Z,7.42
2019-02-07T19:58:18.311Z,7.82
2019-02-07T20:00:45.688Z,7.58
2019-02-07T20:03:12.657Z,7.00
2019-02-07T20:05:40.023Z,7.74
2019-02-07T20:08:07.423Z,7.29
2019-02-07T20:10:35.857Z,8.06
2019-02-07T20:13:02.833Z,7.86
2019-02-07T20:15:29.874Z,7.63
2019-02-07T20:17:59.767Z,8.01
2019-02-07T20:20:25.976Z,7.71
2019-02-07T20:22:53.304Z,7.78
2019-02-07T20:25:21.684Z,8.52
2019-02-07T20:27:48.751Z,8.00
2019-02-07T20:30:16.412Z,8.13
2019-02-07T20:32:43.438Z,7.96
2019-02-07T20:35:11.676Z,7.83
2019-02-07T20:37:38.977Z,7.56
2019-02-07T20:40:08.541Z,7.49
2019-02-07T20:42:35.609Z,7.48
2019-02-07T20:45:04.005Z,7.78
2019-02-07T20:47:31.693Z,8.14
2019-02-07T20:49:59.035Z,7.97
2019-02-07T20:52:27.381Z,7.95
2019-02-07T20:54:54.774Z,7.57
2019-02-07T20:57:21.748Z,7.54
2019-02-07T20:59:49.175Z,7.43
2019-02-07T21:02:16.280Z,7.70
2019-02-07T21:04:43.225Z,7.41
2019-02-07T21:07:10.189Z,7.46
2019-02-07T21:09:37.572Z,7.56
2019-02-07T21:12:04.958Z,7.37
2019-02-07T21:14:32.210Z,7.52
2019-02-07T21:16:59.171Z,7.55
2019-02-07T21:19:26.465Z,7.43
2019-02-07T21:21:53.845Z,7.99
2019-02-07T21:24:20.810Z,8.31
2019-02-07T21:26:47.818Z,7.99
2019-02-07T21:29:15.482Z,8.10
2019-02-07T21:31:42.734Z,8.04
2019-02-07T21:34:11.114Z,8.29
2019-02-07T21:36:38.153Z,8.22
2019-02-07T21:39:05.492Z,7.87
2019-02-07T21:41:34.251Z,8.09
2019-02-07T21:44:01.750Z,8.38
2019-02-07T21:46:28.859Z,8.08
2019-02-07T21:48:56.577Z,7.99
2019-02-07T21:51:23.544Z,8.02
2019-02-07T21:53:50.612Z,8.35
2019-02-07T21:56:17.546Z,8.09
2019-02-07T21:58:44.553Z,7.98
2019-02-07T22:01:12.578Z,7.81
2019-02-07T22:03:39.639Z,7.57
2019-02-07T22:06:06.876Z,7.72
2019-02-07T22:08:35.120Z,7.99
2019-02-07T22:11:02.376Z,8.30
2019-02-07T22:13:29.310Z,8.25
2019-02-07T22:15:56.561Z,7.85
2019-02-07T22:18:23.814Z,7.97
2019-02-07T22:20:50.782Z,7.79
2019-02-07T22:23:17.795Z,8.07
2019-02-07T22:25:45.068Z,7.85
2019-02-07T22:28:12.330Z,8.09
2019-02-07T22:30:39.563Z,8.17
2019-02-07T22:33:06.523Z,7.41
2019-02-07T22:35:33.504Z,7.79
2019-02-07T22:38:00.456Z,7.54
2019-02-07T22:40:28.676Z,7.89
2019-02-07T22:42:56.052Z,7.43
2019-02-07T22:45:23.407Z,7.25
2019-02-07T22:47:50.361Z,6.63
2019-02-07T22:50:17.578Z,6.28
2019-02-07T22:52:44.585Z,7.20
2019-02-07T22:55:11.542Z,6.76
2019-02-07T22:57:38.514Z,7.18
2019-02-07T23:00:05.796Z,6.51
2019-02-07T23:02:33.179Z,6.26
2019-02-07T23:05:00.442Z,5.87
2019-02-07T23:07:27.404Z,6.33
2019-02-07T23:09:54.814Z,5.91
2019-02-07T23:12:21.793Z,5.73
2019-02-07T23:14:48.800Z,6.06
2019-02-07T23:17:15.725Z,5.43
2019-02-07T23:19:43.293Z,5.89
2019-02-07T23:22:10.661Z,6.59
2019-02-07T23:24:37.722Z,6.02
2019-02-07T23:27:05.056Z,5.96
2019-02-07T23:29:32.055Z,6.02
2019-02-07T23:31:59.294Z,5.98
2019-02-07T23:34:26.196Z,6.07
2019-02-07T23:36:53.474Z,6.69
2019-02-07T23:39:20.447Z,6.16
2019-02-07T23:41:48.497Z,5.48
2019-02-07T23:44:15.452Z,5.39
2019-02-07T23:46:42.461Z,5.77
2019-02-07T23:49:10.489Z,6.51
2019-02-07T23:51:37.472Z,6.01
2019-02-07T23:54:04.949Z,5.75
2019-02-07T23:56:32.271Z,5.79
2019-02-07T23:58:59.178Z,5.89
